sensor_id;sensor_type;location;lat;lon;timestamp;P1;durP1;ratioP1;P2;durP2;ratioP2
12976;SDS011;6553;48.412;9.514;2023-08-31T00:01:49;1.50;;;1.40;;
12976;SDS011;6553;48.412;9.514;2023-08-31T00:04:15;1.85;;;1.70;;
12976;SDS011;6553;48.412;9.514;2023-08-31T00:06:41;1.50;;;1.40;;
12976;SDS011;6553;48.412;9.514;2023-08-31T00:09:07;1.58;;;1.40;;
12976;SDS011;6553;48.412;9.514;2023-08-31T00:11:35;1.80;;;1.70;;
12976;SDS011;6553;48.412;9.514;2023-08-31T00:14:01;1.85;;;1.75;;
12976;SDS011;6553;48.412;9.514;2023-08-31T00:16:28;1.40;;;1.30;;
12976;SDS011;6553;48.412;9.514;2023-08-31T00:18:55;1.67;;;1.55;;
12976;SDS011;6553;48.412;9.514;2023-08-31T00:21:22;1.67;;;1.45;;
12976;SDS011;6553;48.412;9.514;2023-08-31T00:23:48;1.60;;;1.50;;
12976;SDS011;6553;48.412;9.514;2023-08-31T00:26:14;1.65;;;1.52;;
12976;SDS011;6553;48.412;9.514;2023-08-31T00:28:42;1.65;;;1.55;;
12976;SDS011;6553;48.412;9.514;2023-08-31T00:31:09;1.50;;;1.40;;
12976;SDS011;6553;48.412;9.514;2023-08-31T00:33:37;1.58;;;1.48;;
12976;SDS011;6553;48.412;9.514;2023-08-31T00:36:03;2.08;;;1.55;;
12976;SDS011;6553;48.412;9.514;2023-08-31T00:38:33;1.48;;;1.38;;
12976;SDS011;6553;48.412;9.514;2023-08-31T00:40:59;1.40;;;1.30;;
12976;SDS011;6553;48.412;9.514;2023-08-31T00:43:25;1.55;;;1.45;;
12976;SDS011;6553;48.412;9.514;2023-08-31T00:45:52;1.60;;;1.50;;
12976;SDS011;6553;48.412;9.514;2023-08-31T00:48:24;1.50;;;1.40;;
12976;SDS011;6553;48.412;9.514;2023-08-31T00:50:50;1.60;;;1.50;;
12976;SDS011;6553;48.412;9.514;2023-08-31T00:53:19;1.50;;;1.40;;
12976;SDS011;6553;48.412;9.514;2023-08-31T00:55:45;1.42;;;1.33;;
12976;SDS011;6553;48.412;9.514;2023-08-31T00:58:12;1.50;;;1.40;;
12976;SDS011;6553;48.412;9.514;2023-08-31T01:06:07;1.30;;;1.20;;
12976;SDS011;6553;48.412;9.514;2023-08-31T01:11:24;1.60;;;1.50;;
12976;SDS011;6553;48.412;9.514;2023-08-31T01:14:11;1.58;;;1.48;;
12976;SDS011;6553;48.412;9.514;2023-08-31T01:16:45;1.20;;;1.20;;
12976;SDS011;6553;48.412;9.514;2023-08-31T01:19:24;1.48;;;1.35;;
12976;SDS011;6553;48.412;9.514;2023-08-31T01:22:11;1.08;;;1.08;;
12976;SDS011;6553;48.412;9.514;2023-08-31T01:24:46;1.50;;;1.40;;
12976;SDS011;6553;48.412;9.514;2023-08-31T01:27:13;2.47;;;1.38;;
12976;SDS011;6553;48.412;9.514;2023-08-31T01:29:39;1.52;;;1.17;;
12976;SDS011;6553;48.412;9.514;2023-08-31T01:32:05;1.35;;;1.25;;
12976;SDS011;6553;48.412;9.514;2023-08-31T01:34:32;1.27;;;1.20;;
12976;SDS011;6553;48.412;9.514;2023-08-31T01:37:00;1.35;;;1.25;;
12976;SDS011;6553;48.412;9.514;2023-08-31T01:39:46;1.90;;;1.70;;
12976;SDS011;6553;48.412;9.514;2023-08-31T01:42:24;1.30;;;1.20;;
12976;SDS011;6553;48.412;9.514;2023-08-31T01:44:53;1.30;;;1.20;;
12976;SDS011;6553;48.412;9.514;2023-08-31T01:47:22;1.30;;;1.20;;
12976;SDS011;6553;48.412;9.514;2023-08-31T01:49:50;1.20;;;1.10;;
12976;SDS011;6553;48.412;9.514;2023-08-31T01:52:17;1.65;;;1.55;;
12976;SDS011;6553;48.412;9.514;2023-08-31T01:54:43;1.40;;;1.30;;
12976;SDS011;6553;48.412;9.514;2023-08-31T01:57:10;1.15;;;1.00;;
12976;SDS011;6553;48.412;9.514;2023-08-31T01:59:55;1.30;;;1.20;;
12976;SDS011;6553;48.412;9.514;2023-08-31T02:02:21;1.73;;;1.30;;
12976;SDS011;6553;48.412;9.514;2023-08-31T02:04:47;1.48;;;1.38;;
12976;SDS011;6553;48.412;9.514;2023-08-31T02:07:13;1.35;;;1.25;;
12976;SDS011;6553;48.412;9.514;2023-08-31T02:09:39;1.27;;;1.17;;
12976;SDS011;6553;48.412;9.514;2023-08-31T02:12:04;1.70;;;1.27;;
12976;SDS011;6553;48.412;9.514;2023-08-31T02:14:30;1.50;;;1.40;;
12976;SDS011;6553;48.412;9.514;2023-08-31T02:16:56;1.45;;;1.10;;
12976;SDS011;6553;48.412;9.514;2023-08-31T02:19:22;1.30;;;1.20;;
12976;SDS011;6553;48.412;9.514;2023-08-31T02:21:47;1.58;;;1.48;;
12976;SDS011;6553;48.412;9.514;2023-08-31T02:24:13;1.20;;;1.10;;
12976;SDS011;6553;48.412;9.514;2023-08-31T02:26:39;1.23;;;1.13;;
12976;SDS011;6553;48.412;9.514;2023-08-31T02:29:05;1.20;;;1.10;;
12976;SDS011;6553;48.412;9.514;2023-08-31T02:31:32;1.38;;;1.10;;
12976;SDS011;6553;48.412;9.514;2023-08-31T02:33:57;1.40;;;1.30;;
12976;SDS011;6553;48.412;9.514;2023-08-31T02:36:24;1.30;;;1.20;;
12976;SDS011;6553;48.412;9.514;2023-08-31T02:38:50;1.40;;;1.30;;
12976;SDS011;6553;48.412;9.514;2023-08-31T02:41:18;1.30;;;1.00;;
12976;SDS011;6553;48.412;9.514;2023-08-31T02:43:44;1.25;;;1.15;;
12976;SDS011;6553;48.412;9.514;2023-08-31T02:46:09;1.77;;;1.23;;
12976;SDS011;6553;48.412;9.514;2023-08-31T02:48:35;1.13;;;1.05;;
12976;SDS011;6553;48.412;9.514;2023-08-31T02:51:01;2.05;;;1.23;;
12976;SDS011;6553;48.412;9.514;2023-08-31T02:53:31;1.20;;;1.10;;
12976;SDS011;6553;48.412;9.514;2023-08-31T02:55:57;1.35;;;1.25;;
12976;SDS011;6553;48.412;9.514;2023-08-31T02:58:23;1.08;;;1.00;;
12976;SDS011;6553;48.412;9.514;2023-08-31T03:00:48;1.48;;;1.38;;
12976;SDS011;6553;48.412;9.514;2023-08-31T03:03:15;1.20;;;1.10;;
12976;SDS011;6553;48.412;9.514;2023-08-31T03:05:43;1.48;;;1.30;;
12976;SDS011;6553;48.412;9.514;2023-08-31T03:08:10;1.15;;;1.10;;
12976;SDS011;6553;48.412;9.514;2023-08-31T03:10:36;2.03;;;1.27;;
12976;SDS011;6553;48.412;9.514;2023-08-31T03:13:03;1.80;;;1.33;;
12976;SDS011;6553;48.412;9.514;2023-08-31T03:15:32;1.30;;;1.20;;
12976;SDS011;6553;48.412;9.514;2023-08-31T03:17:59;1.40;;;1.30;;
12976;SDS011;6553;48.412;9.514;2023-08-31T03:20:25;1.30;;;1.20;;
12976;SDS011;6553;48.412;9.514;2023-08-31T03:22:51;1.30;;;1.20;;
12976;SDS011;6553;48.412;9.514;2023-08-31T03:25:17;1.25;;;1.15;;
12976;SDS011;6553;48.412;9.514;2023-08-31T03:27:43;1.20;;;1.15;;
12976;SDS011;6553;48.412;9.514;2023-08-31T03:30:09;1.13;;;1.10;;
12976;SDS011;6553;48.412;9.514;2023-08-31T03:32:35;1.00;;;1.00;;
12976;SDS011;6553;48.412;9.514;2023-08-31T03:35:01;1.02;;;1.02;;
12976;SDS011;6553;48.412;9.514;2023-08-31T03:37:29;1.33;;;1.17;;
12976;SDS011;6553;48.412;9.514;2023-08-31T03:39:55;1.90;;;1.20;;
12976;SDS011;6553;48.412;9.514;2023-08-31T03:42:21;1.10;;;1.00;;
12976;SDS011;6553;48.412;9.514;2023-08-31T03:44:47;1.00;;;1.00;;
12976;SDS011;6553;48.412;9.514;2023-08-31T03:47:15;1.20;;;1.10;;
12976;SDS011;6553;48.412;9.514;2023-08-31T03:49:40;1.15;;;1.10;;
12976;SDS011;6553;48.412;9.514;2023-08-31T03:52:06;1.17;;;1.08;;
12976;SDS011;6553;48.412;9.514;2023-08-31T03:54:32;1.02;;;1.02;;
12976;SDS011;6553;48.412;9.514;2023-08-31T03:56:58;1.42;;;1.33;;
12976;SDS011;6553;48.412;9.514;2023-08-31T03:59:24;1.20;;;1.10;;
12976;SDS011;6553;48.412;9.514;2023-08-31T04:01:50;1.77;;;1.40;;
12976;SDS011;6553;48.412;9.514;2023-08-31T04:04:17;1.08;;;1.08;;
12976;SDS011;6553;48.412;9.514;2023-08-31T04:06:45;1.33;;;1.23;;
12976;SDS011;6553;48.412;9.514;2023-08-31T04:09:11;1.30;;;1.20;;
12976;SDS011;6553;48.412;9.514;2023-08-31T04:11:37;1.30;;;1.05;;
12976;SDS011;6553;48.412;9.514;2023-08-31T04:14:03;1.40;;;1.30;;
12976;SDS011;6553;48.412;9.514;2023-08-31T04:16:28;1.00;;;1.00;;
12976;SDS011;6553;48.412;9.514;2023-08-31T04:18:54;1.38;;;1.27;;
12976;SDS011;6553;48.412;9.514;2023-08-31T04:21:20;1.50;;;1.38;;
12976;SDS011;6553;48.412;9.514;2023-08-31T04:23:46;1.33;;;1.23;;
12976;SDS011;6553;48.412;9.514;2023-08-31T04:26:12;1.20;;;1.17;;
12976;SDS011;6553;48.412;9.514;2023-08-31T04:28:39;1.20;;;1.10;;
12976;SDS011;6553;48.412;9.514;2023-08-31T04:31:08;1.15;;;1.15;;
12976;SDS011;6553;48.412;9.514;2023-08-31T04:33:35;1.27;;;1.17;;
12976;SDS011;6553;48.412;9.514;2023-08-31T04:36:02;1.23;;;1.13;;
12976;SDS011;6553;48.412;9.514;2023-08-31T04:38:31;1.20;;;1.13;;
12976;SDS011;6553;48.412;9.514;2023-08-31T04:40:59;1.00;;;1.00;;
12976;SDS011;6553;48.412;9.514;2023-08-31T04:43:26;1.27;;;1.23;;
12976;SDS011;6553;48.412;9.514;2023-08-31T04:45:53;1.00;;;1.00;;
12976;SDS011;6553;48.412;9.514;2023-08-31T04:48:20;1.20;;;1.10;;
12976;SDS011;6553;48.412;9.514;2023-08-31T04:50:46;1.42;;;1.33;;
12976;SDS011;6553;48.412;9.514;2023-08-31T04:53:12;1.30;;;1.20;;
12976;SDS011;6553;48.412;9.514;2023-08-31T04:55:38;1.05;;;1.00;;
12976;SDS011;6553;48.412;9.514;2023-08-31T04:58:04;1.10;;;1.10;;
12976;SDS011;6553;48.412;9.514;2023-08-31T05:00:30;1.20;;;1.10;;
12976;SDS011;6553;48.412;9.514;2023-08-31T05:02:56;1.10;;;1.00;;
12976;SDS011;6553;48.412;9.514;2023-08-31T05:05:22;1.00;;;1.00;;
12976;SDS011;6553;48.412;9.514;2023-08-31T05:07:49;0.82;;;0.80;;
12976;SDS011;6553;48.412;9.514;2023-08-31T05:10:14;1.08;;;1.00;;
12976;SDS011;6553;48.412;9.514;2023-08-31T05:12:41;2.22;;;1.35;;
12976;SDS011;6553;48.412;9.514;2023-08-31T05:15:07;1.20;;;1.10;;
12976;SDS011;6553;48.412;9.514;2023-08-31T05:17:34;1.20;;;1.10;;
12976;SDS011;6553;48.412;9.514;2023-08-31T05:20:00;1.30;;;1.20;;
12976;SDS011;6553;48.412;9.514;2023-08-31T05:22:26;1.33;;;1.23;;
12976;SDS011;6553;48.412;9.514;2023-08-31T05:24:52;1.08;;;1.00;;
12976;SDS011;6553;48.412;9.514;2023-08-31T05:27:17;1.10;;;1.10;;
12976;SDS011;6553;48.412;9.514;2023-08-31T05:29:43;1.38;;;1.27;;
12976;SDS011;6553;48.412;9.514;2023-08-31T05:32:09;1.48;;;1.10;;
12976;SDS011;6553;48.412;9.514;2023-08-31T05:34:34;1.10;;;0.93;;
12976;SDS011;6553;48.412;9.514;2023-08-31T05:37:03;1.02;;;1.00;;
12976;SDS011;6553;48.412;9.514;2023-08-31T05:39:32;1.00;;;0.90;;
12976;SDS011;6553;48.412;9.514;2023-08-31T05:41:58;1.10;;;1.00;;
12976;SDS011;6553;48.412;9.514;2023-08-31T05:44:23;1.38;;;1.27;;
12976;SDS011;6553;48.412;9.514;2023-08-31T05:46:49;0.98;;;0.98;;
12976;SDS011;6553;48.412;9.514;2023-08-31T05:49:15;1.27;;;1.17;;
12976;SDS011;6553;48.412;9.514;2023-08-31T05:51:40;1.10;;;1.10;;
12976;SDS011;6553;48.412;9.514;2023-08-31T05:54:06;1.45;;;1.35;;
12976;SDS011;6553;48.412;9.514;2023-08-31T05:56:36;1.20;;;1.10;;
12976;SDS011;6553;48.412;9.514;2023-08-31T05:59:06;1.10;;;1.00;;
12976;SDS011;6553;48.412;9.514;2023-08-31T06:01:32;1.17;;;1.08;;
12976;SDS011;6553;48.412;9.514;2023-08-31T06:03:59;1.05;;;1.00;;
12976;SDS011;6553;48.412;9.514;2023-08-31T06:06:25;1.20;;;1.10;;
12976;SDS011;6553;48.412;9.514;2023-08-31T06:08:51;1.48;;;1.23;;
12976;SDS011;6553;48.412;9.514;2023-08-31T06:11:18;1.13;;;1.02;;
12976;SDS011;6553;48.412;9.514;2023-08-31T06:13:44;1.55;;;1.13;;
12976;SDS011;6553;48.412;9.514;2023-08-31T06:16:10;1.40;;;1.30;;
12976;SDS011;6553;48.412;9.514;2023-08-31T06:18:35;1.08;;;1.00;;
12976;SDS011;6553;48.412;9.514;2023-08-31T06:21:01;1.27;;;1.15;;
12976;SDS011;6553;48.412;9.514;2023-08-31T06:23:27;1.30;;;1.20;;
12976;SDS011;6553;48.412;9.514;2023-08-31T06:25:53;2.80;;;1.45;;
12976;SDS011;6553;48.412;9.514;2023-08-31T06:28:18;1.40;;;1.30;;
12976;SDS011;6553;48.412;9.514;2023-08-31T06:30:44;1.33;;;1.23;;
12976;SDS011;6553;48.412;9.514;2023-08-31T06:33:12;1.35;;;1.25;;
12976;SDS011;6553;48.412;9.514;2023-08-31T06:35:42;1.30;;;1.20;;
12976;SDS011;6553;48.412;9.514;2023-08-31T06:38:11;1.50;;;1.10;;
12976;SDS011;6553;48.412;9.514;2023-08-31T06:40:37;1.00;;;1.00;;
12976;SDS011;6553;48.412;9.514;2023-08-31T06:43:03;2.00;;;1.20;;
12976;SDS011;6553;48.412;9.514;2023-08-31T06:45:29;1.30;;;1.20;;
12976;SDS011;6553;48.412;9.514;2023-08-31T06:47:54;1.52;;;1.42;;
12976;SDS011;6553;48.412;9.514;2023-08-31T06:50:20;1.50;;;1.38;;
12976;SDS011;6553;48.412;9.514;2023-08-31T06:52:46;1.40;;;1.30;;
12976;SDS011;6553;48.412;9.514;2023-08-31T06:55:11;2.45;;;1.50;;
12976;SDS011;6553;48.412;9.514;2023-08-31T06:57:37;1.17;;;1.08;;
12976;SDS011;6553;48.412;9.514;2023-08-31T07:00:03;1.35;;;1.13;;
12976;SDS011;6553;48.412;9.514;2023-08-31T07:02:31;1.23;;;1.13;;
12976;SDS011;6553;48.412;9.514;2023-08-31T07:04:59;1.48;;;1.38;;
12976;SDS011;6553;48.412;9.514;2023-08-31T07:07:25;1.70;;;1.60;;
12976;SDS011;6553;48.412;9.514;2023-08-31T07:09:51;1.70;;;1.60;;
12976;SDS011;6553;48.412;9.514;2023-08-31T07:12:16;2.05;;;1.40;;
12976;SDS011;6553;48.412;9.514;2023-08-31T07:14:42;2.28;;;1.80;;
12976;SDS011;6553;48.412;9.514;2023-08-31T07:17:08;2.53;;;1.65;;
12976;SDS011;6553;48.412;9.514;2023-08-31T07:19:37;1.98;;;1.83;;
12976;SDS011;6553;48.412;9.514;2023-08-31T07:22:03;1.80;;;1.70;;
12976;SDS011;6553;48.412;9.514;2023-08-31T07:24:31;1.75;;;1.65;;
12976;SDS011;6553;48.412;9.514;2023-08-31T07:26:57;1.85;;;1.75;;
12976;SDS011;6553;48.412;9.514;2023-08-31T07:29:22;2.22;;;1.75;;
12976;SDS011;6553;48.412;9.514;2023-08-31T07:31:48;2.42;;;1.98;;
12976;SDS011;6553;48.412;9.514;2023-08-31T07:34:14;2.58;;;2.38;;
12976;SDS011;6553;48.412;9.514;2023-08-31T07:36:40;2.58;;;2.05;;
12976;SDS011;6553;48.412;9.514;2023-08-31T07:39:05;2.00;;;1.90;;
12976;SDS011;6553;48.412;9.514;2023-08-31T07:41:32;2.20;;;2.00;;
12976;SDS011;6553;48.412;9.514;2023-08-31T07:43:57;2.72;;;1.83;;
12976;SDS011;6553;48.412;9.514;2023-08-31T07:46:23;2.00;;;1.90;;
12976;SDS011;6553;48.412;9.514;2023-08-31T07:48:49;2.75;;;2.20;;
12976;SDS011;6553;48.412;9.514;2023-08-31T07:51:16;2.10;;;1.90;;
12976;SDS011;6553;48.412;9.514;2023-08-31T07:53:41;2.30;;;2.10;;
12976;SDS011;6553;48.412;9.514;2023-08-31T07:56:07;2.28;;;1.90;;
12976;SDS011;6553;48.412;9.514;2023-08-31T07:58:33;2.40;;;2.20;;
12976;SDS011;6553;48.412;9.514;2023-08-31T08:00:59;2.38;;;1.80;;
12976;SDS011;6553;48.412;9.514;2023-08-31T08:03:24;2.40;;;2.10;;
12976;SDS011;6553;48.412;9.514;2023-08-31T08:05:50;2.40;;;2.20;;
12976;SDS011;6553;48.412;9.514;2023-08-31T08:08:16;2.20;;;2.05;;
12976;SDS011;6553;48.412;9.514;2023-08-31T08:10:42;2.67;;;2.47;;
12976;SDS011;6553;48.412;9.514;2023-08-31T08:13:08;2.03;;;1.83;;
12976;SDS011;6553;48.412;9.514;2023-08-31T08:15:35;2.60;;;2.15;;
12976;SDS011;6553;48.412;9.514;2023-08-31T08:18:01;2.40;;;2.20;;
12976;SDS011;6553;48.412;9.514;2023-08-31T08:20:27;2.40;;;2.20;;
12976;SDS011;6553;48.412;9.514;2023-08-31T08:22:55;2.60;;;2.40;;
12976;SDS011;6553;48.412;9.514;2023-08-31T08:25:22;2.88;;;2.30;;
12976;SDS011;6553;48.412;9.514;2023-08-31T08:27:48;2.50;;;2.30;;
12976;SDS011;6553;48.412;9.514;2023-08-31T08:30:15;3.05;;;2.30;;
12976;SDS011;6553;48.412;9.514;2023-08-31T08:32:41;2.10;;;2.00;;
12976;SDS011;6553;48.412;9.514;2023-08-31T08:35:07;2.50;;;2.30;;
12976;SDS011;6553;48.412;9.514;2023-08-31T08:37:33;2.85;;;2.13;;
12976;SDS011;6553;48.412;9.514;2023-08-31T08:39:59;2.40;;;2.20;;
12976;SDS011;6553;48.412;9.514;2023-08-31T08:42:26;2.42;;;2.22;;
12976;SDS011;6553;48.412;9.514;2023-08-31T08:44:56;2.40;;;2.17;;
12976;SDS011;6553;48.412;9.514;2023-08-31T08:47:24;3.53;;;2.00;;
12976;SDS011;6553;48.412;9.514;2023-08-31T08:49:52;2.22;;;2.03;;
12976;SDS011;6553;48.412;9.514;2023-08-31T08:52:20;2.30;;;2.10;;
12976;SDS011;6553;48.412;9.514;2023-08-31T08:54:47;2.45;;;2.00;;
12976;SDS011;6553;48.412;9.514;2023-08-31T08:57:14;2.20;;;2.00;;
12976;SDS011;6553;48.412;9.514;2023-08-31T08:59:40;2.00;;;1.80;;
12976;SDS011;6553;48.412;9.514;2023-08-31T09:02:07;2.08;;;1.88;;
12976;SDS011;6553;48.412;9.514;2023-08-31T09:04:36;3.00;;;1.65;;
12976;SDS011;6553;48.412;9.514;2023-08-31T09:07:02;3.13;;;1.80;;
12976;SDS011;6553;48.412;9.514;2023-08-31T09:09:28;1.98;;;1.88;;
12976;SDS011;6553;48.412;9.514;2023-08-31T09:11:54;2.55;;;2.10;;
12976;SDS011;6553;48.412;9.514;2023-08-31T09:14:23;2.20;;;1.60;;
12976;SDS011;6553;48.412;9.514;2023-08-31T09:16:49;2.33;;;1.80;;
12976;SDS011;6553;48.412;9.514;2023-08-31T09:19:23;2.42;;;1.77;;
12976;SDS011;6553;48.412;9.514;2023-08-31T09:21:52;2.70;;;1.90;;
12976;SDS011;6553;48.412;9.514;2023-08-31T09:24:21;2.00;;;1.70;;
12976;SDS011;6553;48.412;9.514;2023-08-31T09:26:50;2.80;;;1.83;;
12976;SDS011;6553;48.412;9.514;2023-08-31T09:29:20;1.90;;;1.80;;
12976;SDS011;6553;48.412;9.514;2023-08-31T09:31:47;2.25;;;1.83;;
12976;SDS011;6553;48.412;9.514;2023-08-31T09:34:14;2.00;;;1.80;;
12976;SDS011;6553;48.412;9.514;2023-08-31T09:36:41;3.90;;;2.13;;
12976;SDS011;6553;48.412;9.514;2023-08-31T09:39:07;2.15;;;1.92;;
12976;SDS011;6553;48.412;9.514;2023-08-31T09:41:34;1.98;;;1.85;;
12976;SDS011;6553;48.412;9.514;2023-08-31T09:44:17;2.10;;;1.90;;
12976;SDS011;6553;48.412;9.514;2023-08-31T09:46:44;2.08;;;1.90;;
12976;SDS011;6553;48.412;9.514;2023-08-31T09:49:13;3.00;;;2.42;;
12976;SDS011;6553;48.412;9.514;2023-08-31T09:51:43;3.58;;;2.15;;
12976;SDS011;6553;48.412;9.514;2023-08-31T09:54:15;2.10;;;1.90;;
12976;SDS011;6553;48.412;9.514;2023-08-31T09:56:44;2.58;;;1.90;;
12976;SDS011;6553;48.412;9.514;2023-08-31T09:59:12;2.38;;;1.80;;
12976;SDS011;6553;48.412;9.514;2023-08-31T10:01:40;2.72;;;2.00;;
12976;SDS011;6553;48.412;9.514;2023-08-31T10:04:07;2.53;;;1.90;;
12976;SDS011;6553;48.412;9.514;2023-08-31T10:06:34;1.85;;;1.58;;
12976;SDS011;6553;48.412;9.514;2023-08-31T10:09:03;3.35;;;1.92;;
12976;SDS011;6553;48.412;9.514;2023-08-31T10:11:30;3.33;;;2.15;;
12976;SDS011;6553;48.412;9.514;2023-08-31T10:13:57;4.07;;;3.00;;
12976;SDS011;6553;48.412;9.514;2023-08-31T10:16:27;2.90;;;2.63;;
12976;SDS011;6553;48.412;9.514;2023-08-31T10:18:55;3.97;;;3.33;;
12976;SDS011;6553;48.412;9.514;2023-08-31T10:21:22;5.18;;;3.67;;
12976;SDS011;6553;48.412;9.514;2023-08-31T10:23:48;7.65;;;4.25;;
12976;SDS011;6553;48.412;9.514;2023-08-31T10:26:29;7.95;;;5.07;;
12976;SDS011;6553;48.412;9.514;2023-08-31T10:28:56;10.73;;;5.13;;
12976;SDS011;6553;48.412;9.514;2023-08-31T10:31:24;7.38;;;5.10;;
12976;SDS011;6553;48.412;9.514;2023-08-31T10:33:59;9.32;;;4.95;;
12976;SDS011;6553;48.412;9.514;2023-08-31T10:36:41;9.88;;;6.53;;
12976;SDS011;6553;48.412;9.514;2023-08-31T10:39:11;10.73;;;7.25;;
12976;SDS011;6553;48.412;9.514;2023-08-31T10:41:41;12.10;;;6.68;;
12976;SDS011;6553;48.412;9.514;2023-08-31T10:44:21;11.18;;;6.63;;
12976;SDS011;6553;48.412;9.514;2023-08-31T10:46:52;11.48;;;7.57;;
12976;SDS011;6553;48.412;9.514;2023-08-31T10:49:19;11.73;;;7.38;;
12976;SDS011;6553;48.412;9.514;2023-08-31T10:51:53;9.65;;;6.85;;
12976;SDS011;6553;48.412;9.514;2023-08-31T10:54:22;9.27;;;6.32;;
12976;SDS011;6553;48.412;9.514;2023-08-31T10:57:03;11.93;;;7.13;;
12976;SDS011;6553;48.412;9.514;2023-08-31T11:02:29;12.80;;;7.32;;
12976;SDS011;6553;48.412;9.514;2023-08-31T11:05:11;15.80;;;8.27;;
12976;SDS011;6553;48.412;9.514;2023-08-31T11:07:43;10.88;;;7.18;;
12976;SDS011;6553;48.412;9.514;2023-08-31T11:10:17;14.55;;;9.15;;
12976;SDS011;6553;48.412;9.514;2023-08-31T11:12:52;11.45;;;7.30;;
12976;SDS011;6553;48.412;9.514;2023-08-31T11:15:21;14.00;;;7.47;;
12976;SDS011;6553;48.412;9.514;2023-08-31T11:17:49;12.02;;;8.65;;
12976;SDS011;6553;48.412;9.514;2023-08-31T11:20:17;10.60;;;7.53;;
12976;SDS011;6553;48.412;9.514;2023-08-31T11:22:51;11.48;;;7.32;;
12976;SDS011;6553;48.412;9.514;2023-08-31T11:25:20;13.68;;;7.82;;
12976;SDS011;6553;48.412;9.514;2023-08-31T11:27:56;11.13;;;6.93;;
12976;SDS011;6553;48.412;9.514;2023-08-31T11:30:29;11.98;;;7.50;;
12976;SDS011;6553;48.412;9.514;2023-08-31T11:32:57;11.20;;;7.97;;
12976;SDS011;6553;48.412;9.514;2023-08-31T11:35:38;11.40;;;7.90;;
12976;SDS011;6553;48.412;9.514;2023-08-31T11:38:06;13.40;;;8.02;;
12976;SDS011;6553;48.412;9.514;2023-08-31T11:40:32;14.32;;;8.25;;
12976;SDS011;6553;48.412;9.514;2023-08-31T11:42:59;12.52;;;7.85;;
12976;SDS011;6553;48.412;9.514;2023-08-31T11:45:25;13.63;;;8.32;;
12976;SDS011;6553;48.412;9.514;2023-08-31T11:47:52;10.68;;;7.80;;
12976;SDS011;6553;48.412;9.514;2023-08-31T11:50:20;14.65;;;7.95;;
12976;SDS011;6553;48.412;9.514;2023-08-31T11:52:47;14.98;;;8.88;;
12976;SDS011;6553;48.412;9.514;2023-08-31T11:55:14;13.20;;;8.70;;
12976;SDS011;6553;48.412;9.514;2023-08-31T11:57:51;12.18;;;8.13;;
12976;SDS011;6553;48.412;9.514;2023-08-31T12:00:19;16.23;;;8.98;;
12976;SDS011;6553;48.412;9.514;2023-08-31T12:05:23;13.27;;;7.32;;
12976;SDS011;6553;48.412;9.514;2023-08-31T12:07:48;9.65;;;7.05;;
12976;SDS011;6553;48.412;9.514;2023-08-31T12:10:16;11.75;;;8.20;;
12976;SDS011;6553;48.412;9.514;2023-08-31T12:12:41;14.43;;;8.25;;
12976;SDS011;6553;48.412;9.514;2023-08-31T12:15:07;12.25;;;8.23;;
12976;SDS011;6553;48.412;9.514;2023-08-31T12:17:38;13.57;;;9.15;;
12976;SDS011;6553;48.412;9.514;2023-08-31T12:20:05;13.50;;;8.45;;
12976;SDS011;6553;48.412;9.514;2023-08-31T12:22:31;12.13;;;7.72;;
12976;SDS011;6553;48.412;9.514;2023-08-31T12:24:58;15.93;;;8.98;;
12976;SDS011;6553;48.412;9.514;2023-08-31T12:27:23;10.73;;;8.13;;
12976;SDS011;6553;48.412;9.514;2023-08-31T12:29:49;11.57;;;8.68;;
12976;SDS011;6553;48.412;9.514;2023-08-31T12:32:15;13.10;;;8.55;;
12976;SDS011;6553;48.412;9.514;2023-08-31T12:34:43;11.70;;;8.48;;
12976;SDS011;6553;48.412;9.514;2023-08-31T12:37:09;11.75;;;7.60;;
12976;SDS011;6553;48.412;9.514;2023-08-31T12:39:34;11.07;;;8.05;;
12976;SDS011;6553;48.412;9.514;2023-08-31T12:42:02;10.88;;;7.72;;
12976;SDS011;6553;48.412;9.514;2023-08-31T12:44:29;9.80;;;7.18;;
12976;SDS011;6553;48.412;9.514;2023-08-31T12:46:56;12.55;;;7.93;;
12976;SDS011;6553;48.412;9.514;2023-08-31T12:49:21;12.18;;;7.70;;
12976;SDS011;6553;48.412;9.514;2023-08-31T12:51:48;12.15;;;7.70;;
12976;SDS011;6553;48.412;9.514;2023-08-31T12:54:15;11.70;;;6.97;;
12976;SDS011;6553;48.412;9.514;2023-08-31T12:56:41;10.45;;;7.03;;
12976;SDS011;6553;48.412;9.514;2023-08-31T12:59:07;9.68;;;6.28;;
12976;SDS011;6553;48.412;9.514;2023-08-31T13:01:33;10.15;;;7.32;;
12976;SDS011;6553;48.412;9.514;2023-08-31T13:03:58;13.27;;;7.78;;
12976;SDS011;6553;48.412;9.514;2023-08-31T13:06:24;10.90;;;7.75;;
12976;SDS011;6553;48.412;9.514;2023-08-31T13:08:51;10.95;;;7.55;;
12976;SDS011;6553;48.412;9.514;2023-08-31T13:11:17;12.48;;;7.60;;
12976;SDS011;6553;48.412;9.514;2023-08-31T13:13:48;11.52;;;7.72;;
12976;SDS011;6553;48.412;9.514;2023-08-31T13:16:16;10.73;;;7.80;;
12976;SDS011;6553;48.412;9.514;2023-08-31T13:18:42;9.80;;;7.28;;
12976;SDS011;6553;48.412;9.514;2023-08-31T13:21:08;9.88;;;7.38;;
12976;SDS011;6553;48.412;9.514;2023-08-31T13:23:33;10.18;;;7.28;;
12976;SDS011;6553;48.412;9.514;2023-08-31T13:25:59;9.20;;;6.38;;
12976;SDS011;6553;48.412;9.514;2023-08-31T13:28:25;9.38;;;6.95;;
12976;SDS011;6553;48.412;9.514;2023-08-31T13:30:57;10.23;;;6.78;;
12976;SDS011;6553;48.412;9.514;2023-08-31T13:33:25;9.63;;;6.75;;
12976;SDS011;6553;48.412;9.514;2023-08-31T13:35:56;10.75;;;7.22;;
12976;SDS011;6553;48.412;9.514;2023-08-31T13:38:23;10.68;;;6.47;;
12976;SDS011;6553;48.412;9.514;2023-08-31T13:40:53;8.00;;;6.40;;
12976;SDS011;6553;48.412;9.514;2023-08-31T13:43:23;8.75;;;6.55;;
12976;SDS011;6553;48.412;9.514;2023-08-31T13:45:49;8.27;;;6.43;;
12976;SDS011;6553;48.412;9.514;2023-08-31T13:48:15;11.02;;;6.82;;
12976;SDS011;6553;48.412;9.514;2023-08-31T13:50:40;8.52;;;6.47;;
12976;SDS011;6553;48.412;9.514;2023-08-31T13:53:06;7.97;;;6.53;;
12976;SDS011;6553;48.412;9.514;2023-08-31T13:55:32;9.70;;;6.40;;
12976;SDS011;6553;48.412;9.514;2023-08-31T13:58:06;8.40;;;5.85;;
12976;SDS011;6553;48.412;9.514;2023-08-31T14:00:36;7.30;;;6.00;;
12976;SDS011;6553;48.412;9.514;2023-08-31T14:03:03;10.77;;;7.35;;
12976;SDS011;6553;48.412;9.514;2023-08-31T14:05:30;8.68;;;6.28;;
12976;SDS011;6553;48.412;9.514;2023-08-31T14:07:56;7.38;;;5.88;;
12976;SDS011;6553;48.412;9.514;2023-08-31T14:10:23;9.10;;;6.03;;
12976;SDS011;6553;48.412;9.514;2023-08-31T14:12:50;7.38;;;5.93;;
12976;SDS011;6553;48.412;9.514;2023-08-31T14:15:16;8.98;;;6.25;;
12976;SDS011;6553;48.412;9.514;2023-08-31T14:17:41;7.55;;;6.15;;
12976;SDS011;6553;48.412;9.514;2023-08-31T14:20:07;7.60;;;5.60;;
12976;SDS011;6553;48.412;9.514;2023-08-31T14:22:34;6.07;;;5.30;;
12976;SDS011;6553;48.412;9.514;2023-08-31T14:25:01;7.28;;;5.57;;
12976;SDS011;6553;48.412;9.514;2023-08-31T14:27:28;7.75;;;5.35;;
12976;SDS011;6553;48.412;9.514;2023-08-31T14:29:56;10.70;;;5.80;;
12976;SDS011;6553;48.412;9.514;2023-08-31T14:32:23;8.55;;;5.57;;
12976;SDS011;6553;48.412;9.514;2023-08-31T14:34:48;6.85;;;5.13;;
12976;SDS011;6553;48.412;9.514;2023-08-31T14:37:14;8.30;;;5.32;;
12976;SDS011;6553;48.412;9.514;2023-08-31T14:39:40;6.57;;;4.80;;
12976;SDS011;6553;48.412;9.514;2023-08-31T14:42:06;7.32;;;4.85;;
12976;SDS011;6553;48.412;9.514;2023-08-31T14:44:32;6.40;;;4.72;;
12976;SDS011;6553;48.412;9.514;2023-08-31T14:46:58;6.93;;;5.00;;
12976;SDS011;6553;48.412;9.514;2023-08-31T14:49:24;6.22;;;4.55;;
12976;SDS011;6553;48.412;9.514;2023-08-31T14:51:52;8.10;;;5.30;;
12976;SDS011;6553;48.412;9.514;2023-08-31T14:54:18;9.05;;;5.15;;
12976;SDS011;6553;48.412;9.514;2023-08-31T14:56:44;5.93;;;4.68;;
12976;SDS011;6553;48.412;9.514;2023-08-31T14:59:10;7.50;;;5.10;;
12976;SDS011;6553;48.412;9.514;2023-08-31T15:01:35;8.32;;;4.78;;
12976;SDS011;6553;48.412;9.514;2023-08-31T15:04:01;7.00;;;4.70;;
12976;SDS011;6553;48.412;9.514;2023-08-31T15:06:29;7.45;;;5.05;;
12976;SDS011;6553;48.412;9.514;2023-08-31T15:08:58;7.45;;;4.75;;
12976;SDS011;6553;48.412;9.514;2023-08-31T15:11:27;6.68;;;4.68;;
12976;SDS011;6553;48.412;9.514;2023-08-31T15:13:53;6.32;;;4.78;;